createdAt,value
2018-11-20T06:52:10.465Z,34.00
2018-11-20T06:54:36.839Z,34.67
2018-11-20T06:57:03.169Z,34.97
2018-11-20T06:59:29.501Z,34.65
2018-11-20T07:01:55.869Z,34.53
2018-11-20T07:04:22.197Z,34.55
2018-11-20T07:06:48.742Z,34.31
2018-11-20T07:09:15.108Z,34.29
2018-11-20T07:11:41.472Z,33.98
2018-11-20T07:14:07.796Z,33.90
2018-11-20T07:16:34.218Z,33.37
2018-11-20T07:19:00.507Z,33.27
2018-11-20T07:21:26.910Z,33.18
2018-11-20T07:23:53.246Z,33.08
2018-11-20T07:26:19.635Z,33.07
2018-11-20T07:28:45.977Z,32.74
2018-11-20T07:31:12.480Z,32.78
2018-11-20T07:33:38.728Z,33.02
2018-11-20T07:36:05.127Z,32.72
2018-11-20T07:38:31.541Z,32.67
2018-11-20T07:40:57.936Z,32.65
2018-11-20T07:43:24.458Z,32.95
2018-11-20T07:45:50.719Z,32.40
2018-11-20T07:48:17.139Z,33.01
2018-11-20T07:50:43.482Z,33.03
2018-11-20T07:53:09.812Z,32.65
2018-11-20T07:55:36.255Z,33.03
2018-11-20T07:58:02.505Z,32.64
2018-11-20T08:00:28.858Z,33.94
2018-11-20T08:02:55.343Z,32.75
2018-11-20T08:05:21.657Z,33.07
2018-11-20T08:07:48.049Z,32.67
2018-11-20T08:10:14.420Z,32.89
2018-11-20T08:12:40.743Z,33.33
2018-11-20T08:15:07.136Z,33.31
2018-11-20T08:17:36.407Z,33.21
2018-11-20T08:20:02.792Z,33.31
2018-11-20T08:22:29.394Z,33.30
2018-11-20T08:24:55.543Z,33.30
2018-11-20T08:27:21.893Z,33.23
2018-11-20T08:29:48.250Z,33.25
2018-11-20T08:32:14.618Z,33.04
2018-11-20T08:34:40.952Z,33.57
2018-11-20T08:37:07.348Z,33.27
2018-11-20T08:39:33.824Z,33.08
2018-11-20T08:42:00.335Z,32.92
2018-11-20T08:44:26.678Z,33.03
2018-11-20T08:46:53.191Z,32.88
2018-11-20T08:49:19.633Z,33.23
2018-11-20T08:51:45.963Z,33.30
2018-11-20T08:54:12.423Z,33.11
2018-11-20T08:56:38.759Z,33.08
2018-11-20T08:59:05.119Z,33.35
2018-11-20T09:01:31.516Z,33.19
2018-11-20T09:03:57.841Z,33.42
2018-11-20T09:06:27.761Z,32.87
2018-11-20T09:08:54.196Z,32.64
2018-11-20T09:11:20.545Z,32.74
2018-11-20T09:13:46.926Z,32.62
2018-11-20T09:16:13.277Z,32.64
2018-11-20T09:18:39.778Z,32.88
2018-11-20T09:21:06.630Z,32.87
2018-11-20T09:23:33.059Z,32.36
2018-11-20T09:25:59.377Z,32.73
2018-11-20T09:28:25.763Z,32.78
2018-11-20T09:30:52.206Z,32.88
2018-11-20T09:33:18.573Z,32.73
2018-11-20T09:35:45.112Z,32.73
2018-11-20T09:38:12.358Z,32.87
2018-11-20T09:40:38.701Z,33.04
2018-11-20T09:43:05.073Z,32.78
2018-11-20T09:45:31.567Z,33.11
2018-11-20T09:47:57.940Z,32.71
2018-11-20T09:50:24.321Z,32.97
2018-11-20T09:52:50.762Z,32.40
2018-11-20T09:55:17.082Z,32.90
2018-11-20T09:57:43.412Z,33.02
2018-11-20T10:00:09.776Z,32.60
2018-11-20T10:02:36.109Z,32.39
2018-11-20T10:05:02.442Z,32.87
2018-11-20T10:07:28.817Z,32.32
2018-11-20T10:09:55.240Z,32.68
2018-11-20T10:12:21.646Z,32.44
2018-11-20T10:14:48.092Z,32.47
2018-11-20T10:17:14.333Z,32.49
2018-11-20T10:19:40.685Z,32.75
2018-11-20T10:22:07.092Z,32.41
2018-11-20T10:24:33.390Z,32.30
2018-11-20T10:26:59.710Z,32.61
2018-11-20T10:29:26.149Z,32.65
2018-11-20T10:31:52.521Z,32.81
2018-11-20T10:34:18.927Z,32.56
2018-11-20T10:36:45.252Z,32.49
2018-11-20T10:39:11.614Z,32.63
2018-11-20T10:41:38.083Z,32.66
2018-11-20T10:44:04.460Z,32.65
2018-11-20T10:46:30.891Z,32.00
2018-11-20T10:48:57.164Z,32.25
2018-11-20T10:51:23.518Z,32.43
2018-11-20T10:53:49.912Z,32.36
2018-11-20T10:56:16.279Z,32.40
2018-11-20T10:58:42.691Z,32.52
2018-11-20T11:01:10.029Z,32.52
2018-11-20T11:03:36.414Z,32.14
2018-11-20T11:06:02.726Z,32.53
2018-11-20T11:08:29.072Z,32.31
2018-11-20T11:10:55.400Z,33.08
2018-11-20T11:13:21.764Z,32.73
2018-11-20T11:15:48.099Z,33.17
2018-11-20T11:18:14.459Z,32.75
2018-11-20T11:20:40.964Z,32.61
2018-11-20T11:23:07.183Z,32.74
2018-11-20T11:25:33.520Z,33.10
2018-11-20T11:27:59.863Z,32.81
2018-11-20T11:30:27.286Z,32.69
2018-11-20T11:32:53.778Z,32.68
2018-11-20T11:35:20.174Z,32.13
2018-11-20T11:37:46.554Z,32.17
2018-11-20T11:40:12.881Z,32.52
2018-11-20T11:42:39.248Z,31.88
2018-11-20T11:45:05.647Z,32.04
2018-11-20T11:47:32.028Z,31.92
2018-11-20T11:49:58.445Z,31.56
2018-11-20T11:52:25.414Z,31.88
2018-11-20T11:54:51.303Z,31.82
2018-11-20T11:57:17.592Z,31.75
2018-11-20T11:59:43.955Z,31.65
2018-11-20T12:04:35.740Z,31.53
2018-11-20T12:07:03.097Z,31.70
2018-11-20T12:09:29.437Z,31.45
2018-11-20T12:11:56.844Z,31.75
2018-11-20T12:14:23.166Z,31.70
2018-11-20T12:16:49.669Z,31.68
2018-11-20T12:19:16.082Z,31.92
2018-11-20T12:21:42.427Z,31.72
2018-11-20T12:24:08.769Z,31.43
2018-11-20T12:26:35.192Z,31.65
2018-11-20T12:29:01.543Z,32.01
2018-11-20T12:31:28.776Z,31.91
2018-11-20T12:33:54.393Z,32.01
2018-11-20T12:36:20.826Z,31.74
2018-11-20T12:38:47.188Z,31.75
2018-11-20T12:41:13.598Z,31.93
2018-11-20T12:43:40.052Z,33.45
2018-11-20T12:46:06.421Z,31.92
2018-11-20T12:48:32.781Z,31.79
2018-11-20T12:50:59.111Z,31.83
2018-11-20T12:53:25.481Z,31.37
2018-11-20T12:55:51.849Z,31.61
2018-11-20T12:58:18.590Z,32.05
2018-11-20T13:00:44.961Z,32.25
2018-11-20T13:03:11.293Z,32.10
2018-11-20T13:05:37.643Z,31.69
2018-11-20T13:08:04.148Z,31.75
2018-11-20T13:10:30.500Z,32.06
2018-11-20T13:12:58.564Z,31.63
2018-11-20T13:15:23.348Z,31.66
2018-11-20T13:17:49.708Z,31.58
2018-11-20T13:20:16.058Z,31.43
2018-11-20T13:22:42.585Z,31.54
2018-11-20T13:25:09.562Z,31.94
2018-11-20T13:27:35.249Z,31.59
2018-11-20T13:30:01.642Z,31.94
2018-11-20T13:32:27.981Z,31.88
2018-11-20T13:34:54.326Z,31.86
2018-11-20T13:37:20.688Z,32.07
2018-11-20T13:39:47.032Z,31.54
2018-11-20T13:42:13.373Z,32.23
2018-11-20T13:44:40.953Z,32.05
2018-11-20T13:47:08.352Z,32.04
2018-11-20T13:49:34.687Z,32.18
2018-11-20T13:52:01.034Z,31.55
2018-11-20T13:54:27.388Z,31.75
2018-11-20T13:56:53.756Z,31.62
2018-11-20T13:59:20.090Z,31.85
2018-11-20T14:01:46.425Z,31.47
2018-11-20T14:04:12.974Z,31.37
2018-11-20T14:06:39.257Z,31.87
2018-11-20T14:09:05.963Z,31.85
2018-11-20T14:11:36.453Z,32.48
2018-11-20T14:13:58.760Z,32.12
2018-11-20T14:16:25.135Z,32.04
2018-11-20T14:18:51.523Z,31.96
2018-11-20T14:21:17.860Z,32.13
2018-11-20T14:23:44.263Z,32.33
2018-11-20T14:26:10.590Z,31.63
2018-11-20T14:28:36.973Z,32.04
2018-11-20T14:31:03.462Z,32.15
2018-11-20T14:33:29.899Z,31.59
2018-11-20T14:35:56.281Z,31.80
2018-11-20T14:38:22.662Z,31.99
2018-11-20T14:40:48.981Z,31.82
2018-11-20T14:43:15.400Z,32.04
2018-11-20T14:45:41.847Z,31.89
2018-11-20T14:48:08.183Z,31.83
2018-11-20T14:50:34.577Z,32.08
2018-11-20T14:53:00.978Z,32.14
2018-11-20T14:55:27.355Z,32.21
2018-11-20T14:57:54.794Z,32.00
2018-11-20T15:00:21.150Z,31.67
2018-11-20T15:02:47.540Z,31.87
2018-11-20T15:05:13.954Z,31.88
2018-11-20T15:07:40.293Z,32.08
2018-11-20T15:10:06.614Z,31.61
2018-11-20T15:12:33.005Z,31.96
2018-11-20T15:14:59.426Z,31.91
2018-11-20T15:17:25.767Z,32.18
2018-11-20T15:19:52.108Z,31.73
2018-11-20T15:22:18.490Z,32.11
2018-11-20T15:24:44.851Z,31.82
2018-11-20T15:27:11.638Z,31.94
2018-11-20T15:29:37.966Z,31.82
2018-11-20T15:32:04.332Z,31.71
2018-11-20T15:34:30.662Z,31.92
2018-11-20T15:36:57.054Z,32.11
2018-11-20T15:39:23.381Z,32.29
2018-11-20T15:41:49.809Z,32.08
2018-11-20T15:44:17.211Z,32.04
2018-11-20T15:46:43.558Z,32.28
2018-11-20T15:49:10.320Z,31.94
2018-11-20T15:51:36.873Z,32.37
2018-11-20T15:54:03.323Z,32.10
2018-11-20T15:56:29.747Z,32.14
2018-11-20T15:58:56.107Z,32.33
2018-11-20T16:01:23.135Z,32.57
2018-11-20T16:03:48.919Z,32.02
2018-11-20T16:06:15.744Z,32.51
2018-11-20T16:08:42.152Z,32.21
2018-11-20T16:11:10.187Z,32.35
2018-11-20T16:13:34.878Z,32.42
2018-11-20T16:16:01.207Z,32.47
2018-11-20T16:18:27.587Z,32.43
2018-11-20T16:20:53.966Z,32.66
2018-11-20T16:23:20.315Z,32.55
2018-11-20T16:25:46.697Z,32.49
2018-11-20T16:28:13.110Z,32.72
2018-11-20T16:30:39.442Z,32.93
2018-11-20T16:33:05.866Z,32.84
2018-11-20T16:35:32.193Z,32.75
2018-11-20T16:37:58.569Z,32.71
2018-11-20T16:40:24.901Z,32.66
2018-11-20T16:42:51.307Z,32.86
2018-11-20T16:45:17.669Z,32.76
2018-11-20T16:47:43.970Z,32.79
2018-11-20T16:50:10.355Z,32.97
2018-11-20T16:52:36.742Z,32.88
2018-11-20T16:55:03.168Z,33.17
2018-11-20T16:57:29.545Z,32.85
2018-11-20T16:59:56.169Z,33.09
2018-11-20T17:02:22.329Z,33.13
2018-11-20T17:04:48.783Z,33.16
2018-11-20T17:07:15.113Z,33.11
2018-11-20T17:09:41.457Z,33.23
2018-11-20T17:12:07.843Z,33.23
2018-11-20T17:14:34.196Z,33.10
2018-11-20T17:17:00.680Z,33.35
2018-11-20T17:19:27.059Z,33.22
2018-11-20T17:21:53.521Z,33.13
2018-11-20T17:24:19.886Z,33.44
2018-11-20T17:26:46.216Z,33.33
2018-11-20T17:29:12.597Z,33.46
2018-11-20T17:31:38.996Z,33.63
2018-11-20T17:34:05.365Z,33.52
2018-11-20T17:36:31.698Z,33.64
2018-11-20T17:38:58.028Z,33.64
2018-11-20T17:41:24.351Z,33.57
2018-11-20T17:43:50.749Z,33.68
2018-11-20T17:46:17.133Z,33.97
2018-11-20T17:48:43.544Z,33.84
2018-11-20T17:51:09.897Z,33.85
2018-11-20T17:53:36.351Z,34.18
2018-11-20T17:56:02.876Z,34.04
2018-11-20T17:58:29.234Z,34.13
2018-11-20T18:00:55.606Z,34.00
2018-11-20T18:03:22.001Z,34.04
2018-11-20T18:05:48.403Z,34.00
2018-11-20T18:08:14.793Z,33.77
2018-11-20T18:10:41.124Z,33.77
2018-11-20T18:13:07.485Z,33.75
2018-11-20T18:15:33.829Z,33.52
2018-11-20T18:18:00.222Z,33.39
2018-11-20T18:20:26.556Z,33.49
2018-11-20T18:22:52.953Z,33.44
2018-11-20T18:25:19.322Z,33.56
2018-11-20T18:27:45.714Z,33.40
2018-11-20T18:30:12.053Z,33.42
2018-11-20T18:32:38.418Z,33.35
2018-11-20T18:35:04.810Z,33.36
2018-11-20T18:37:31.092Z,33.24
2018-11-20T18:39:57.438Z,33.30
2018-11-20T18:42:23.836Z,33.22
2018-11-20T18:44:50.188Z,33.28
2018-11-20T18:47:16.554Z,33.20
2018-11-20T18:49:42.960Z,33.17
2018-11-20T18:52:09.314Z,32.99
2018-11-20T18:54:35.639Z,33.08
2018-11-20T18:57:02.043Z,33.10
2018-11-20T18:59:28.374Z,33.01
2018-11-20T19:01:54.759Z,33.01
2018-11-20T19:04:21.101Z,32.95
2018-11-20T19:06:47.520Z,33.04
2018-11-20T19:09:13.894Z,33.04
2018-11-20T19:11:40.195Z,32.91
2018-11-20T19:14:06.583Z,32.95
2018-11-20T19:16:32.965Z,32.92
2018-11-20T19:18:59.316Z,32.98
2018-11-20T19:21:25.690Z,32.94
2018-11-20T19:23:52.015Z,32.94
2018-11-20T19:26:18.400Z,33.17
2018-11-20T19:28:44.743Z,33.05
2018-11-20T19:31:11.161Z,33.03
2018-11-20T19:33:37.517Z,33.10
2018-11-20T19:36:03.950Z,32.99
2018-11-20T19:38:30.276Z,32.92
2018-11-20T19:40:56.684Z,32.91
2018-11-20T19:43:23.019Z,33.06
2018-11-20T19:45:49.398Z,33.06
2018-11-20T19:48:15.789Z,33.12
2018-11-20T19:50:42.118Z,33.12
2018-11-20T19:53:08.510Z,33.06
2018-11-20T19:55:34.891Z,33.36
2018-11-20T19:58:01.211Z,33.30
2018-11-20T20:00:27.602Z,33.39
2018-11-20T20:02:53.985Z,33.67
2018-11-20T20:05:20.311Z,33.37
2018-11-20T20:07:46.643Z,33.44
2018-11-20T20:10:17.659Z,33.57
2018-11-20T20:12:39.320Z,33.44
2018-11-20T20:15:05.704Z,33.40
2018-11-20T20:17:32.027Z,33.50
2018-11-20T20:19:58.394Z,33.36
2018-11-20T20:22:24.742Z,33.13
2018-11-20T20:24:51.073Z,33.46
2018-11-20T20:27:17.439Z,33.34
2018-11-20T20:29:43.760Z,33.59
2018-11-20T20:32:10.166Z,33.59
2018-11-20T20:34:36.498Z,33.39
2018-11-20T20:37:02.826Z,33.37
2018-11-20T20:39:29.157Z,33.90
2018-11-20T20:41:55.546Z,33.46
2018-11-20T20:44:21.868Z,33.75
2018-11-20T20:46:48.242Z,33.63
2018-11-20T20:49:14.659Z,33.46
2018-11-20T20:51:41.094Z,33.39
2018-11-20T20:54:12.355Z,33.75
2018-11-20T20:56:33.802Z,34.00
2018-11-20T20:59:00.134Z,34.12
2018-11-20T21:01:26.525Z,34.37
2018-11-20T21:03:52.860Z,34.20
2018-11-20T21:06:19.239Z,34.49
2018-11-20T21:08:45.579Z,34.61
2018-11-20T21:11:11.907Z,34.62
2018-11-20T21:13:38.296Z,34.70
2018-11-20T21:16:04.637Z,34.93
2018-11-20T21:18:31.011Z,34.94
2018-11-20T21:20:57.445Z,34.86
2018-11-20T21:23:23.769Z,34.94
2018-11-20T21:25:50.091Z,35.13
2018-11-20T21:28:16.493Z,35.17
2018-11-20T21:30:43.356Z,35.22
2018-11-20T21:33:09.222Z,35.32
2018-11-20T21:35:35.550Z,35.42
2018-11-20T21:38:01.886Z,35.04
2018-11-20T21:40:28.251Z,35.26
2018-11-20T21:42:54.569Z,35.47
2018-11-20T21:45:20.980Z,35.65
2018-11-20T21:47:47.385Z,35.63
2018-11-20T21:50:13.735Z,35.51
2018-11-20T21:52:40.104Z,35.51
2018-11-20T21:55:06.433Z,35.35
2018-11-20T21:57:32.751Z,35.30
2018-11-20T21:59:59.082Z,35.46
2018-11-20T22:02:25.448Z,35.58
2018-11-20T22:04:51.779Z,35.62
2018-11-20T22:07:18.163Z,35.70
2018-11-20T22:09:44.493Z,35.74
2018-11-20T22:12:10.884Z,35.91
2018-11-20T22:14:37.257Z,35.97
2018-11-20T22:17:03.692Z,36.13
2018-11-20T22:19:30.018Z,36.14
2018-11-20T22:21:56.348Z,36.24
2018-11-20T22:24:22.680Z,36.10
2018-11-20T22:26:49.078Z,36.13
2018-11-20T22:29:15.447Z,36.21
2018-11-20T22:31:41.781Z,36.24
2018-11-20T22:34:08.104Z,36.38
2018-11-20T22:36:34.430Z,36.41
2018-11-20T22:39:00.831Z,36.42
2018-11-20T22:41:28.074Z,36.40
2018-11-20T22:43:53.530Z,36.45
2018-11-20T22:46:19.944Z,36.45
2018-11-20T22:48:46.240Z,36.63
2018-11-20T22:51:12.604Z,36.69
2018-11-20T22:53:39.004Z,36.55
2018-11-20T22:56:05.334Z,36.46
2018-11-20T22:58:31.722Z,36.54
2018-11-20T23:00:58.053Z,36.48
2018-11-20T23:03:24.478Z,36.71
2018-11-20T23:05:50.941Z,36.61
2018-11-20T23:08:17.357Z,36.83
2018-11-20T23:10:43.733Z,36.78
2018-11-20T23:13:10.130Z,36.65
2018-11-20T23:15:36.468Z,36.67
2018-11-20T23:18:02.799Z,36.64
2018-11-20T23:20:29.174Z,36.77
2018-11-20T23:22:55.498Z,36.99
2018-11-20T23:25:21.868Z,36.85
2018-11-20T23:27:48.218Z,36.72
2018-11-20T23:30:14.600Z,36.76
2018-11-20T23:32:40.962Z,36.73
2018-11-20T23:35:07.363Z,36.97
2018-11-20T23:37:33.685Z,36.96
2018-11-20T23:40:00.007Z,37.03
2018-11-20T23:42:26.394Z,37.12
2018-11-20T23:44:52.744Z,36.82
2018-11-20T23:47:19.058Z,36.92
2018-11-20T23:49:45.431Z,37.01
2018-11-20T23:52:11.752Z,37.01
2018-11-20T23:54:38.149Z,37.13
2018-11-20T23:57:04.474Z,37.16
2018-11-20T23:59:30.857Z,36.96
